createdAt,value
2022-10-24T00:00:44.194Z,32.40
2022-10-24T00:03:18.773Z,38.50
2022-10-24T00:05:50.767Z,32.20
2022-10-24T00:08:22.102Z,33.60
2022-10-24T00:10:53.263Z,37.50
2022-10-24T00:13:24.094Z,29.10
2022-10-24T00:15:55.159Z,29.30
2022-10-24T00:18:26.581Z,42.80
2022-10-24T00:20:58.784Z,35.00
2022-10-24T00:23:29.649Z,29.80
2022-10-24T00:26:04.650Z,29.40
2022-10-24T00:28:36.730Z,34.20
2022-10-24T00:31:09.350Z,31.40
2022-10-24T00:33:40.614Z,33.30
2022-10-24T00:36:14.869Z,32.20
2022-10-24T00:38:46.323Z,32.30
2022-10-24T00:41:21.073Z,32.70
2022-10-24T00:43:53.687Z,29.40
2022-10-24T00:46:24.462Z,29.60
2022-10-24T00:48:56.535Z,33.30
2022-10-24T00:51:34.200Z,30.70
2022-10-24T00:54:09.771Z,30.90
2022-10-24T00:56:45.042Z,31.40
2022-10-24T00:59:19.174Z,27.40
2022-10-24T01:01:50.558Z,27.90
2022-10-24T01:04:21.479Z,30.80
2022-10-24T01:07:01.201Z,29.50
2022-10-24T01:09:50.527Z,24.90
2022-10-24T01:12:34.475Z,30.60
2022-10-24T01:15:15.461Z,33.30
2022-10-24T01:17:53.522Z,31.20
2022-10-24T01:20:58.331Z,31.90
2022-10-24T01:23:56.326Z,24.60
2022-10-24T01:26:54.736Z,25.70
2022-10-24T01:29:46.422Z,30.50
2022-10-24T01:32:29.652Z,29.20
2022-10-24T01:35:08.039Z,29.30
2022-10-24T01:37:44.900Z,25.80
2022-10-24T01:40:21.575Z,27.70
2022-10-24T01:42:55.612Z,24.70
2022-10-24T01:45:31.386Z,28.60
2022-10-24T01:48:06.401Z,27.80
2022-10-24T01:50:39.479Z,31.10
2022-10-24T01:53:13.193Z,28.00
2022-10-24T01:55:46.806Z,27.00
2022-10-24T01:58:17.816Z,28.10
2022-10-24T02:00:51.332Z,23.70
2022-10-24T02:03:28.101Z,27.30
2022-10-24T02:06:04.748Z,23.10
2022-10-24T02:08:40.243Z,26.60
2022-10-24T02:11:12.825Z,24.80
2022-10-24T02:13:49.085Z,27.50
2022-10-24T02:16:21.596Z,27.40
2022-10-24T02:18:56.063Z,25.20
2022-10-24T02:21:34.694Z,25.10
2022-10-24T02:24:11.399Z,24.20
2022-10-24T02:26:48.609Z,22.90
2022-10-24T02:29:25.695Z,25.60
2022-10-24T02:31:59.649Z,22.90
2022-10-24T02:34:35.336Z,24.10
2022-10-24T02:37:07.788Z,25.10
2022-10-24T02:39:41.190Z,26.60
2022-10-24T02:42:15.514Z,25.30
2022-10-24T02:44:48.226Z,24.20
2022-10-24T02:47:24.120Z,28.70
2022-10-24T02:49:55.556Z,25.50
2022-10-24T02:52:26.571Z,23.70
2022-10-24T02:54:57.645Z,25.50
2022-10-24T02:57:28.616Z,23.70
2022-10-24T02:59:59.580Z,26.60
2022-10-24T03:02:30.563Z,36.60
2022-10-24T03:05:01.904Z,27.60
2022-10-24T03:07:33.009Z,23.90
2022-10-24T03:10:04.209Z,26.70
2022-10-24T03:12:35.350Z,28.70
2022-10-24T03:15:07.289Z,29.10
2022-10-24T03:17:38.554Z,30.70
2022-10-24T03:20:11.241Z,39.10
2022-10-24T03:22:42.791Z,28.90
2022-10-24T03:25:13.775Z,34.80
2022-10-24T03:27:45.637Z,26.30
2022-10-24T03:30:17.210Z,27.40
2022-10-24T03:32:48.422Z,30.90
2022-10-24T03:35:19.836Z,27.50
2022-10-24T03:37:50.824Z,37.20
2022-10-24T03:40:21.817Z,29.20
2022-10-24T03:42:53.238Z,31.20
2022-10-24T03:45:24.297Z,30.10
2022-10-24T03:47:55.735Z,29.60
2022-10-24T03:50:26.745Z,30.60
2022-10-24T03:52:57.948Z,33.30
2022-10-24T03:55:30.008Z,25.50
2022-10-24T03:58:01.416Z,27.20
2022-10-24T04:00:34.988Z,27.00
2022-10-24T04:03:06.125Z,31.10
2022-10-24T04:08:13.374Z,31.30
2022-10-24T04:10:44.370Z,26.00
2022-10-24T04:13:15.464Z,28.80
2022-10-24T04:15:46.838Z,37.60
2022-10-24T04:18:17.837Z,28.80
2022-10-24T04:20:48.866Z,27.60
2022-10-24T04:23:19.844Z,29.00
2022-10-24T04:25:51.305Z,29.10
2022-10-24T04:28:22.383Z,28.70
2022-10-24T04:30:58.584Z,26.60
2022-10-24T04:33:29.706Z,25.00
2022-10-24T04:36:00.741Z,25.30
2022-10-24T04:38:33.659Z,25.60
2022-10-24T04:41:07.325Z,31.70
2022-10-24T04:43:41.108Z,26.40
2022-10-24T04:46:12.075Z,27.10
2022-10-24T04:48:43.202Z,24.40
2022-10-24T04:51:18.542Z,30.20
2022-10-24T04:53:52.737Z,18.00
2022-10-24T04:56:25.970Z,23.00
2022-10-24T04:58:56.972Z,29.40
2022-10-24T05:01:28.146Z,25.70
2022-10-24T05:03:59.202Z,24.50
2022-10-24T05:06:30.301Z,22.00
2022-10-24T05:09:01.293Z,23.10
2022-10-24T05:11:33.158Z,23.10
2022-10-24T05:14:04.393Z,40.60
2022-10-24T05:16:35.534Z,30.70
2022-10-24T05:19:08.798Z,27.30
2022-10-24T05:21:40.351Z,27.10
2022-10-24T05:24:11.588Z,29.90
2022-10-24T05:26:42.786Z,30.00
2022-10-24T05:29:13.895Z,27.90
2022-10-24T05:31:44.903Z,25.40
2022-10-24T05:34:15.947Z,27.00
2022-10-24T05:36:47.120Z,21.90
2022-10-24T05:39:18.368Z,26.90
2022-10-24T05:41:52.162Z,27.00
2022-10-24T05:44:26.114Z,27.30
2022-10-24T05:46:57.674Z,26.60
2022-10-24T05:49:28.761Z,24.20
2022-10-24T05:52:00.021Z,24.90
2022-10-24T05:54:42.535Z,30.50
2022-10-24T05:57:22.453Z,31.40
2022-10-24T05:59:53.478Z,29.30
2022-10-24T06:02:28.214Z,28.70
2022-10-24T06:04:59.898Z,24.10
2022-10-24T06:07:31.723Z,26.50
2022-10-24T06:10:03.806Z,26.90
2022-10-24T06:12:36.522Z,32.60
2022-10-24T06:15:11.117Z,31.10
2022-10-24T06:17:42.498Z,27.50
2022-10-24T06:20:13.807Z,29.90
2022-10-24T06:22:46.878Z,27.50
2022-10-24T06:25:18.597Z,28.10
2022-10-24T06:27:49.818Z,28.50
2022-10-24T06:30:21.253Z,27.00
2022-10-24T06:32:52.495Z,26.40
2022-10-24T06:35:24.862Z,25.60
2022-10-24T06:37:56.510Z,24.80
2022-10-24T06:40:28.599Z,29.10
2022-10-24T06:43:00.375Z,30.00
2022-10-24T06:45:33.833Z,22.40
2022-10-24T06:48:05.517Z,28.10
2022-10-24T06:50:40.841Z,28.10
2022-10-24T06:53:13.185Z,23.10
2022-10-24T06:55:44.757Z,27.60
2022-10-24T06:58:16.786Z,26.60
2022-10-24T07:00:48.161Z,26.00
2022-10-24T07:03:19.474Z,24.40
2022-10-24T07:05:51.234Z,23.90
2022-10-24T07:08:25.591Z,23.30
2022-10-24T07:11:11.958Z,28.30
2022-10-24T07:13:43.522Z,25.30
2022-10-24T07:16:15.486Z,21.90
2022-10-24T07:18:47.636Z,24.30
2022-10-24T07:21:21.855Z,24.70
2022-10-24T07:23:55.048Z,28.60
2022-10-24T07:26:31.202Z,21.10
2022-10-24T07:29:04.850Z,25.20
2022-10-24T07:31:37.866Z,23.50
2022-10-24T07:34:10.891Z,24.00
2022-10-24T07:36:43.809Z,24.20
2022-10-24T07:39:16.146Z,22.90
2022-10-24T07:41:47.441Z,27.60
2022-10-24T07:44:19.043Z,29.40
2022-10-24T07:46:50.783Z,24.90
2022-10-24T07:49:30.151Z,27.50
2022-10-24T07:52:07.225Z,24.70
2022-10-24T07:54:44.861Z,25.90
2022-10-24T07:57:16.175Z,25.00
2022-10-24T07:59:47.623Z,25.50
2022-10-24T08:02:19.826Z,21.60
2022-10-24T08:04:53.978Z,24.10
2022-10-24T08:07:25.476Z,27.90
2022-10-24T08:09:56.973Z,25.20
2022-10-24T08:12:28.449Z,24.00
2022-10-24T08:15:00.640Z,22.50
2022-10-24T08:20:05.406Z,26.90
2022-10-24T08:22:36.959Z,25.20
2022-10-24T08:25:11.362Z,27.80
2022-10-24T08:30:20.400Z,20.60
2022-10-24T08:32:51.697Z,25.90
2022-10-24T08:35:23.627Z,24.00
2022-10-24T08:37:55.093Z,27.10
2022-10-24T08:40:26.976Z,25.30
2022-10-24T08:42:58.288Z,26.70
2022-10-24T08:45:37.155Z,23.30
2022-10-24T08:48:14.599Z,32.80
2022-10-24T08:50:52.751Z,23.30
2022-10-24T08:53:29.177Z,29.30
2022-10-24T08:56:35.131Z,20.40
2022-10-24T08:59:08.184Z,24.50
2022-10-24T09:01:45.399Z,24.70
2022-10-24T09:04:21.212Z,23.60
2022-10-24T09:06:55.794Z,19.20
2022-10-24T09:09:31.575Z,26.50
2022-10-24T09:12:05.203Z,24.90
2022-10-24T09:14:40.046Z,26.90
2022-10-24T09:17:20.320Z,18.90
2022-10-24T09:19:54.316Z,22.10
2022-10-24T09:22:28.295Z,18.70
2022-10-24T09:25:03.227Z,24.80
2022-10-24T09:27:37.606Z,21.80
2022-10-24T09:30:16.741Z,20.00
2022-10-24T09:32:49.163Z,18.90
2022-10-24T09:35:24.022Z,19.20
2022-10-24T09:37:56.656Z,20.90
2022-10-24T09:40:31.715Z,19.50
2022-10-24T09:43:14.617Z,21.80
2022-10-24T09:45:47.903Z,24.10
2022-10-24T09:48:27.576Z,22.00
2022-10-24T09:51:04.247Z,23.20
2022-10-24T09:53:37.801Z,19.30
2022-10-24T09:56:13.869Z,20.90
2022-10-24T09:58:45.519Z,24.60
2022-10-24T10:01:23.953Z,31.80
2022-10-24T10:04:10.046Z,22.30
2022-10-24T10:06:47.140Z,19.80
2022-10-24T10:09:25.584Z,22.00
2022-10-24T10:12:03.584Z,24.60
2022-10-24T10:14:41.618Z,21.00
2022-10-24T10:17:25.613Z,18.90
2022-10-24T10:19:57.862Z,20.80
2022-10-24T10:22:31.912Z,23.40
2022-10-24T10:25:03.677Z,19.80
2022-10-24T10:27:37.935Z,19.00
2022-10-24T10:30:30.442Z,34.30
2022-10-24T10:33:24.912Z,19.00
2022-10-24T10:36:04.471Z,21.30
2022-10-24T10:38:49.578Z,30.00
2022-10-24T10:41:35.225Z,25.50
2022-10-24T10:44:24.503Z,22.50
2022-10-24T10:47:07.313Z,20.40
2022-10-24T10:49:42.487Z,19.60
2022-10-24T10:55:10.862Z,17.30
2022-10-24T10:57:49.484Z,20.80
2022-10-24T11:00:28.817Z,21.50
2022-10-24T11:03:16.950Z,16.10
2022-10-24T11:06:05.176Z,15.40
2022-10-24T11:09:04.933Z,16.80
2022-10-24T11:11:41.138Z,18.60
2022-10-24T11:14:23.637Z,23.00
2022-10-24T11:16:58.157Z,18.90
2022-10-24T11:19:35.170Z,23.40
2022-10-24T11:22:11.869Z,26.30
2022-10-24T11:24:48.360Z,19.70
2022-10-24T11:27:29.504Z,18.20
2022-10-24T11:30:06.824Z,22.40
2022-10-24T11:32:44.784Z,24.50
2022-10-24T11:35:26.571Z,20.90
2022-10-24T11:38:03.280Z,19.90
2022-10-24T11:40:36.804Z,18.30
2022-10-24T11:43:17.416Z,18.90
2022-10-24T11:45:55.732Z,19.90
2022-10-24T11:48:35.654Z,20.70
2022-10-24T11:51:17.749Z,17.10
2022-10-24T11:53:56.978Z,20.60
2022-10-24T11:56:34.861Z,17.60
2022-10-24T11:59:08.784Z,18.80
2022-10-24T12:02:16.685Z,19.80
2022-10-24T12:05:23.896Z,17.00
2022-10-24T12:08:28.980Z,24.20
2022-10-24T12:11:23.787Z,17.20
2022-10-24T12:14:23.027Z,13.30
2022-10-24T12:17:15.895Z,22.80
2022-10-24T12:19:50.693Z,13.70
2022-10-24T12:25:16.294Z,13.60
2022-10-24T12:27:53.746Z,11.20
2022-10-24T12:30:27.588Z,11.70
2022-10-24T12:33:09.879Z,15.80
2022-10-24T12:35:56.519Z,15.20
2022-10-24T12:39:04.854Z,19.90
2022-10-24T12:41:44.797Z,12.90
2022-10-24T12:44:51.782Z,11.80
2022-10-24T12:48:05.387Z,22.40
2022-10-24T12:50:57.435Z,12.50
2022-10-24T12:54:00.686Z,12.20
2022-10-24T12:56:33.200Z,26.00
2022-10-24T12:59:19.910Z,13.70
2022-10-24T13:02:42.774Z,17.90
2022-10-24T13:05:44.462Z,13.90
2022-10-24T13:08:43.190Z,11.00
2022-10-24T13:11:32.440Z,10.30
2022-10-24T13:14:21.501Z,12.10
2022-10-24T13:17:03.433Z,13.60
2022-10-24T13:19:38.701Z,24.20
2022-10-24T13:22:30.821Z,13.10
2022-10-24T13:25:18.478Z,18.30
2022-10-24T13:28:27.374Z,10.00
2022-10-24T13:31:29.683Z,10.50
2022-10-24T13:34:17.918Z,14.80
2022-10-24T13:36:51.954Z,9.00
2022-10-24T13:39:31.119Z,12.80
2022-10-24T13:42:07.782Z,22.70
2022-10-24T13:44:46.689Z,13.90
2022-10-24T13:47:22.506Z,11.20
2022-10-24T13:50:01.907Z,16.10
2022-10-24T13:52:39.772Z,13.90
2022-10-24T13:55:24.806Z,21.20
2022-10-24T13:58:13.376Z,13.60
2022-10-24T14:00:58.730Z,14.40
2022-10-24T14:03:32.569Z,23.80
2022-10-24T14:06:08.458Z,10.70
2022-10-24T14:11:40.672Z,14.40
2022-10-24T14:14:26.849Z,11.50
2022-10-24T14:17:23.649Z,13.30
2022-10-24T14:19:59.341Z,15.60
2022-10-24T14:22:37.091Z,11.50
2022-10-24T14:25:24.240Z,11.50
2022-10-24T14:27:57.415Z,11.20
2022-10-24T14:30:34.499Z,13.30
2022-10-24T14:33:23.756Z,13.20
2022-10-24T14:35:57.963Z,11.90
2022-10-24T14:38:33.915Z,9.50
2022-10-24T14:46:35.525Z,13.20
2022-10-24T14:49:30.645Z,17.50
2022-10-24T14:52:09.562Z,11.50
2022-10-24T14:54:45.525Z,13.50
2022-10-24T14:57:23.144Z,19.70
2022-10-24T14:59:56.506Z,16.90
2022-10-24T15:02:32.856Z,13.40
2022-10-24T15:05:32.739Z,15.60
2022-10-24T15:08:28.863Z,14.00
2022-10-24T15:11:21.680Z,12.50
2022-10-24T15:14:06.343Z,17.70
2022-10-24T15:19:19.497Z,15.90
2022-10-24T15:21:51.049Z,15.50
2022-10-24T15:24:29.114Z,15.70
2022-10-24T15:27:14.014Z,14.80
2022-10-24T15:29:45.199Z,15.80
2022-10-24T15:32:19.593Z,16.60
2022-10-24T15:34:56.742Z,16.60
2022-10-24T15:37:28.697Z,27.60
2022-10-24T15:40:17.968Z,24.60
2022-10-24T15:42:49.754Z,15.10
2022-10-24T15:45:21.703Z,20.00
2022-10-24T15:47:54.220Z,17.40
2022-10-24T15:50:26.965Z,17.10
2022-10-24T15:52:59.501Z,18.60
2022-10-24T15:55:31.871Z,27.10
2022-10-24T15:58:03.322Z,25.70
2022-10-24T16:00:35.629Z,28.50
2022-10-24T16:03:08.775Z,16.70
2022-10-24T16:05:42.845Z,15.80
2022-10-24T16:08:21.006Z,17.00
2022-10-24T16:10:53.885Z,22.30
2022-10-24T16:13:26.135Z,21.10
2022-10-24T16:15:57.308Z,17.00
2022-10-24T16:18:28.455Z,23.70
2022-10-24T16:21:00.141Z,21.40
2022-10-24T16:23:31.328Z,17.00
2022-10-24T16:26:02.829Z,30.50
2022-10-24T16:28:34.826Z,23.20
2022-10-24T16:31:07.416Z,20.80
2022-10-24T16:33:39.002Z,16.90
2022-10-24T16:36:10.984Z,17.30
2022-10-24T16:38:42.432Z,24.40
2022-10-24T16:41:21.871Z,21.40
2022-10-24T16:43:54.686Z,22.50
2022-10-24T16:46:28.071Z,17.90
2022-10-24T16:49:02.534Z,22.30
2022-10-24T16:51:34.327Z,20.70
2022-10-24T16:54:05.410Z,12.60
2022-10-24T16:56:36.953Z,24.00
2022-10-24T16:59:10.403Z,19.50
2022-10-24T17:01:45.244Z,22.80
2022-10-24T17:04:16.451Z,16.30
2022-10-24T17:06:47.835Z,17.80
2022-10-24T17:09:19.566Z,17.70
2022-10-24T17:11:51.124Z,18.30
2022-10-24T17:14:22.762Z,15.00
2022-10-24T17:16:54.459Z,22.90
2022-10-24T17:19:26.212Z,23.90
2022-10-24T17:21:57.809Z,20.30
2022-10-24T17:24:30.211Z,23.40
2022-10-24T17:27:03.141Z,20.00
2022-10-24T17:29:36.407Z,31.50
2022-10-24T17:32:08.746Z,19.80
2022-10-24T17:34:41.900Z,26.40
2022-10-24T17:37:26.181Z,18.70
2022-10-24T17:40:03.527Z,26.20
2022-10-24T17:42:35.998Z,23.40
2022-10-24T17:45:14.357Z,18.10
2022-10-24T17:50:19.179Z,30.60
2022-10-24T17:52:52.319Z,28.00
2022-10-24T17:55:45.603Z,39.50
2022-10-24T17:58:17.515Z,24.50
2022-10-24T18:00:49.137Z,23.70
2022-10-24T18:03:20.632Z,19.40
2022-10-24T18:05:51.712Z,19.50
2022-10-24T18:08:23.595Z,18.30
2022-10-24T18:10:55.667Z,22.90
2022-10-24T18:13:27.046Z,21.50
2022-10-24T18:15:58.288Z,20.60
2022-10-24T18:18:30.303Z,22.70
2022-10-24T18:21:10.997Z,21.40
2022-10-24T18:23:42.721Z,21.60
2022-10-24T18:26:15.801Z,17.20
2022-10-24T18:28:48.929Z,17.80
2022-10-24T18:31:22.205Z,31.40
2022-10-24T18:33:53.463Z,24.20
2022-10-24T18:37:14.065Z,20.80
2022-10-24T18:39:45.569Z,22.40
2022-10-24T18:42:26.828Z,20.60
2022-10-24T18:44:59.455Z,24.70
2022-10-24T18:47:32.555Z,22.40
2022-10-24T18:50:04.732Z,20.20
2022-10-24T18:52:48.108Z,22.10
2022-10-24T18:55:22.913Z,22.50
2022-10-24T18:57:55.013Z,25.50
2022-10-24T19:00:28.206Z,25.00
2022-10-24T19:03:26.194Z,21.50
2022-10-24T19:06:06.326Z,27.70
2022-10-24T19:08:37.949Z,22.40
2022-10-24T19:13:46.284Z,22.40
2022-10-24T19:16:28.736Z,22.20
2022-10-24T19:19:03.805Z,30.70
2022-10-24T19:21:35.327Z,30.90
2022-10-24T19:24:07.155Z,21.70
2022-10-24T19:33:30.434Z,24.80
2022-10-24T19:36:05.165Z,25.50
2022-10-24T19:38:36.446Z,20.90
2022-10-24T19:41:11.417Z,24.40
2022-10-24T19:43:42.744Z,23.70
2022-10-24T19:46:42.278Z,28.20
2022-10-24T19:49:13.627Z,33.00
2022-10-24T19:51:45.048Z,31.80
2022-10-24T19:54:16.271Z,26.10
2022-10-24T19:56:49.467Z,25.90
2022-10-24T19:59:26.003Z,20.50
2022-10-24T20:04:31.525Z,26.10
2022-10-24T20:07:03.006Z,24.40
2022-10-24T20:09:34.057Z,19.90
2022-10-24T20:12:06.179Z,24.50
2022-10-24T20:15:02.835Z,25.80
2022-10-24T20:17:33.911Z,19.40
2022-10-24T20:20:05.470Z,17.80
2022-10-24T20:22:40.545Z,23.00
2022-10-24T20:31:18.076Z,18.40
2022-10-24T20:33:49.211Z,34.30
2022-10-24T20:36:22.177Z,15.40
2022-10-24T20:38:53.383Z,22.00
2022-10-24T20:41:24.442Z,24.90
2022-10-24T20:48:59.383Z,19.00
2022-10-24T20:51:30.606Z,24.70
2022-10-24T20:54:02.007Z,19.20
2022-10-24T20:56:33.080Z,23.80
2022-10-24T20:59:04.641Z,15.10
2022-10-24T21:01:35.999Z,18.30
2022-10-24T21:04:07.249Z,20.80
2022-10-24T21:06:38.367Z,19.50
2022-10-24T21:09:09.829Z,17.00
2022-10-24T21:11:40.865Z,18.30
2022-10-24T21:14:15.075Z,17.30
2022-10-24T21:16:46.494Z,26.20
2022-10-24T21:19:18.147Z,17.60
2022-10-24T21:21:49.464Z,21.30
2022-10-24T21:24:20.654Z,20.70
2022-10-24T21:26:51.737Z,23.30
2022-10-24T21:29:38.076Z,18.50
2022-10-24T21:32:09.380Z,18.60
2022-10-24T21:34:40.405Z,16.60
2022-10-24T21:37:11.733Z,16.40
2022-10-24T21:39:42.791Z,24.40
2022-10-24T21:42:14.111Z,23.30
2022-10-24T21:44:45.176Z,24.40
2022-10-24T21:47:16.380Z,13.70
2022-10-24T21:50:12.817Z,17.10
2022-10-24T21:52:44.489Z,19.30
2022-10-24T21:55:15.916Z,20.00
2022-10-24T21:57:47.166Z,14.20
2022-10-24T22:00:19.070Z,20.40
2022-10-24T22:02:50.982Z,15.50
2022-10-24T22:05:22.457Z,25.90
2022-10-24T22:07:53.597Z,19.90
2022-10-24T22:10:26.117Z,21.40
2022-10-24T22:12:57.261Z,18.40
2022-10-24T22:15:28.213Z,19.00
2022-10-24T22:17:59.076Z,19.80
2022-10-24T22:20:29.892Z,22.30
2022-10-24T22:23:00.736Z,21.20
2022-10-24T22:25:31.961Z,15.50
2022-10-24T22:28:02.856Z,17.90
2022-10-24T22:30:33.680Z,16.60
2022-10-24T22:33:05.514Z,20.40
2022-10-24T22:35:38.657Z,15.90
2022-10-24T22:38:11.538Z,22.80
2022-10-24T22:40:43.327Z,18.90
2022-10-24T22:43:14.991Z,21.70
2022-10-24T22:45:55.661Z,20.00
2022-10-24T22:48:31.359Z,21.60
2022-10-24T22:51:02.985Z,20.20
2022-10-24T22:53:34.997Z,19.30
2022-10-24T22:56:14.609Z,20.90
2022-10-24T22:58:47.345Z,19.60
2022-10-24T23:01:30.296Z,23.90
2022-10-24T23:04:16.866Z,15.30
2022-10-24T23:06:52.920Z,17.10
2022-10-24T23:09:23.875Z,20.40
2022-10-24T23:11:56.036Z,15.50
2022-10-24T23:14:27.938Z,16.70
2022-10-24T23:17:01.933Z,23.30
2022-10-24T23:19:34.664Z,19.10
2022-10-24T23:22:20.766Z,26.70
2022-10-24T23:24:55.284Z,20.90
2022-10-24T23:27:38.118Z,18.20
2022-10-24T23:30:18.835Z,18.70
2022-10-24T23:32:52.179Z,24.70
2022-10-24T23:35:25.270Z,24.90
2022-10-24T23:37:57.088Z,19.20
2022-10-24T23:40:34.946Z,20.10
2022-10-24T23:43:15.352Z,22.60
2022-10-24T23:45:56.630Z,17.90
2022-10-24T23:48:46.469Z,21.00
2022-10-24T23:51:24.727Z,21.80
2022-10-24T23:53:57.575Z,19.40
2022-10-24T23:56:30.229Z,15.80
2022-10-24T23:59:01.570Z,20.30
